Joint Base Pearl Harbor Hickam, HI (96853)

8:46 AM HST on June 02, 2015 (GMT -1000)
Ewa | | Change Station
CLOSE
Current Station
Personal Weather Station
Location: Ewa Beach, HI
Elevation: 46 ft
Nearby Weather Stations
Active Advisory: High Surf Advisory Active Notice: Record Report

Elev 46 ft 21.34 °N, 158.03 °W | Updated 23 minutes ago

Scattered Clouds
Scattered Clouds
79.7 °F
Feels Like 82 °F
N
3.1
Wind Variable Wind from NE
Gusts 7.4 mph

Today
High -- | Low -- °F
--% Chance of Precip.
Yesterday
High -- | Low -- °F
Precip. -- in
5:49 AM 7:10 PM
Full, 100% visible
Pressure 30.05 in
Visibility 10.0 miles
Clouds Few 2600 ft
Scattered Clouds 3800 ft
Heat Index 82 °F
Dew Point 68 °F
Humidity 66%
Rainfall -999.00 in
Snow Depth Not available.
UV 2 out of 12
Pollen Not available.
Air Quality Not available.
Flu Activity Local Activity
METAR PHNL 021753Z 07007G16KT 10SM FEW026 SCT038 26/18 A3005 RMK AO2 SLP176 VCSH E T02610183 10261 20239 51010

More Conditions Fewer Conditions

Pressure 30.05 in
Visibility 10.0 miles
Clouds Few 2600 ft
Scattered Clouds 3800 ft
Heat Index 82 °F
Dew Point 68 °F
Humidity 66%
Rainfall -999.00 in
Snow Depth Not available.
UV 2 out of 12
Pollen Not available.
Air Quality Not available.
Flu Activity Local Activity
METAR PHNL 021753Z 07007G16KT 10SM FEW026 SCT038 26/18 A3005 RMK AO2 SLP176 VCSH E T02610183 10261 20239 51010

More Conditions Fewer Conditions

10-Day Weather Forecast

×

Almanac

Astronomy

Jun. 02, 2015 Rise Set
Actual Time
Civil Twilight
Nautical Twilight
Astronomical Twilight
Moon
Length of Visible Light
Length of Day
Tomorrow will be .
, % of the Moon is Illuminated

Today's Extremes

State Highs State Lows

Community

WunderPhotos

Upload Photos

1,825,997 photos uploaded!

WunderBlogs® & News

Nearby

Air Quality

  Air Quality AQ Index Pollutant
Not available.

Snow Depth

Station Depth Elevation

Earthquake Activity

City Distance Mag. Time & Date
Minimum magnitude displayed is 2.5.

Coastal Water Temperatures

Place Temperature

Stations

Nearby Weather Stations

Station Location Temp. Windchill Dew Point Humidity Wind Precip. Elev Updated Type
                   
High Surf Advisory
Statement as of 3:33 AM HST on June 02, 2015

... High surf advisory remains in effect until 6 PM HST this
evening...

A high surf advisory remains in effect until 6 PM HST this
evening.

* Surf... 6 to 10 feet along south facing shores.

* Timing... slowly diminishing through this afternoon.

* Impacts... moderate... expect strong breaking waves... shore
break... and strong longshore and rip currents making swimming
difficult and dangerous.

Precautionary/preparedness actions...

Know your limits and seek ocean recreation areas best suited for
your abilities. Beachgoers... swimmers... and surfers should heed
all advice given by ocean safety officials and exercise caution.
Boaters should expect surfers and body boarders utilizing Harbor
channels to access surfing areas.